Amble, United Kingdom
Current Conditions -  °F | °C
As of 4:50 AM on Saturday 25 Oct 2014 (Local Time) from EGQM Reporting Station
Few Clouds Few Clouds  
Wind Chill: 42°   Ceiling: Unl
Heat Index: 46°   Visibility: 6mi
Dew Point: 43°   Wind: 8mph
Humidity: 87%   Direction: 180°S
Pressure: 29.77"   Gusts: NA
Location:  55.33°N, 1.58°W
Report Text: EGQM 250350Z AUTO 18007KT 9999 FEW046/// 08/06 Q1008
Loading
Personal Weather Stations






























Interactive Weather Map
Tropical Storm Tracking
New forecast layout! Learn more

10-Day Weather Forecast

Advertisements
Track Severe Weather on mobile